Evans, Louisiana
Current Conditions -  °F | °C
As of 11:35 AM on Friday 19 Dec 2014 (Local Time) from KDRI Reporting Station
Moderate Rain Moderate Rain  
Wind Chill: 55°   Ceiling: 500
Heat Index: 55°   Visibility: 7mi
Dew Point: 53°   Wind: 5mph
Humidity: 95%   Direction: 330°NNW
Pressure: 30.14"   Gusts: NA
Location:  30.99°N, 93.5°W
Report Text: KDRI 191735Z AUTO 33004KT 7SM RA BKN005 OVC022 13/12 A3014 RMK AO2 P0004 T01250117
Loading
Personal Weather Stations






























Interactive Weather Map New forecast layout! Learn more

10-Day Weather Forecast

Advertisements
Track Severe Weather on mobile